sensor_id;sensor_type;location;lat;lon;timestamp;pressure;altitude;pressure_sealevel;temperature;humidity
8573;BME280;4324;42.012;24.872;2022-12-29T00:01:37;100092.63;;;5.25;95.29
8573;BME280;4324;42.012;24.872;2022-12-29T00:04:04;100097.66;;;5.28;95.33
8573;BME280;4324;42.012;24.872;2022-12-29T00:06:31;100084.31;;;5.19;95.31
8573;BME280;4324;42.012;24.872;2022-12-29T00:08:58;100102.72;;;5.31;95.11
8573;BME280;4324;42.012;24.872;2022-12-29T00:11:27;100066.47;;;5.11;95.04
8573;BME280;4324;42.012;24.872;2022-12-29T00:13:54;100101.75;;;5.32;95.22
8573;BME280;4324;42.012;24.872;2022-12-29T00:16:41;100024.78;;;4.81;95.42
8573;BME280;4324;42.012;24.872;2022-12-29T00:19:10;100101.75;;;5.32;95.37
8573;BME280;4324;42.012;24.872;2022-12-29T00:21:58;100112.88;;;5.36;95.16
8573;BME280;4324;42.012;24.872;2022-12-29T00:24:50;100105.53;;;5.28;95.09
8573;BME280;4324;42.012;24.872;2022-12-29T00:27:36;100123.72;;;5.31;95.37
8573;BME280;4324;42.012;24.872;2022-12-29T00:30:22;100111.94;;;5.24;95.43
8573;BME280;4324;42.012;24.872;2022-12-29T00:33:09;100122.44;;;5.24;95.44
8573;BME280;4324;42.012;24.872;2022-12-29T00:35:56;100130.97;;;5.28;95.69
8573;BME280;4324;42.012;24.872;2022-12-29T00:38:24;100146.31;;;5.34;96.15
8573;BME280;4324;42.012;24.872;2022-12-29T00:41:08;100155.53;;;5.40;96.02
8573;BME280;4324;42.012;24.872;2022-12-29T00:43:54;100157.84;;;5.44;96.36
8573;BME280;4324;42.012;24.872;2022-12-29T00:46:36;100147.47;;;5.43;96.37
8573;BME280;4324;42.012;24.872;2022-12-29T00:49:03;100067.72;;;4.93;96.49
8573;BME280;4324;42.012;24.872;2022-12-29T00:51:48;100159.94;;;5.52;96.50
8573;BME280;4324;42.012;24.872;2022-12-29T00:54:15;100149.75;;;5.47;96.50
8573;BME280;4324;42.012;24.872;2022-12-29T00:56:42;100175.72;;;5.65;96.41
8573;BME280;4324;42.012;24.872;2022-12-29T00:59:11;100172.56;;;5.72;96.54
8573;BME280;4324;42.012;24.872;2022-12-29T01:01:38;100161.00;;;5.75;96.22
8573;BME280;4324;42.012;24.872;2022-12-29T01:04:05;100161.19;;;5.85;96.43
8573;BME280;4324;42.012;24.872;2022-12-29T01:06:33;100141.53;;;5.77;95.95
8573;BME280;4324;42.012;24.872;2022-12-29T01:09:00;100163.50;;;6.02;95.89
8573;BME280;4324;42.012;24.872;2022-12-29T01:11:45;100164.97;;;6.06;95.68
8573;BME280;4324;42.012;24.872;2022-12-29T01:14:13;100160.22;;;6.11;95.87
8573;BME280;4324;42.012;24.872;2022-12-29T01:16:40;100157.59;;;6.11;95.87
8573;BME280;4324;42.012;24.872;2022-12-29T01:19:07;100157.78;;;6.21;95.84
8573;BME280;4324;42.012;24.872;2022-12-29T01:21:34;100167.25;;;6.23;95.84
8573;BME280;4324;42.012;24.872;2022-12-29T01:24:01;100138.25;;;6.12;95.60
8573;BME280;4324;42.012;24.872;2022-12-29T01:26:28;100164.91;;;6.32;95.41
8573;BME280;4324;42.012;24.872;2022-12-29T01:28:55;100136.88;;;6.19;95.26
8573;BME280;4324;42.012;24.872;2022-12-29T01:31:23;100137.47;;;6.23;94.96
8573;BME280;4324;42.012;24.872;2022-12-29T01:33:50;100161.94;;;6.36;95.07
8573;BME280;4324;42.012;24.872;2022-12-29T01:36:18;100100.41;;;6.02;95.12
8573;BME280;4324;42.012;24.872;2022-12-29T01:38:45;100154.44;;;6.43;94.92
8573;BME280;4324;42.012;24.872;2022-12-29T01:41:13;100150.78;;;6.45;94.75
8573;BME280;4324;42.012;24.872;2022-12-29T01:43:42;100141.06;;;6.46;94.49
8573;BME280;4324;42.012;24.872;2022-12-29T01:46:18;100145.88;;;6.52;93.93
8573;BME280;4324;42.012;24.872;2022-12-29T01:48:49;100133.69;;;6.51;94.11
8573;BME280;4324;42.012;24.872;2022-12-29T01:51:17;100120.03;;;6.46;94.41
8573;BME280;4324;42.012;24.872;2022-12-29T01:53:44;100133.47;;;6.54;94.10
8573;BME280;4324;42.012;24.872;2022-12-29T01:56:15;100096.28;;;6.35;94.19
8573;BME280;4324;42.012;24.872;2022-12-29T01:58:47;100122.94;;;6.54;94.11
8573;BME280;4324;42.012;24.872;2022-12-29T02:01:17;100096.03;;;6.38;93.93
8573;BME280;4324;42.012;24.872;2022-12-29T02:03:47;100095.47;;;6.34;93.99
8573;BME280;4324;42.012;24.872;2022-12-29T02:06:19;100117.88;;;6.51;93.73
8573;BME280;4324;42.012;24.872;2022-12-29T02:08:49;100121.25;;;6.53;93.50
8573;BME280;4324;42.012;24.872;2022-12-29T02:11:17;100091.53;;;6.40;93.34
8573;BME280;4324;42.012;24.872;2022-12-29T02:13:46;100099.81;;;6.46;93.36
8573;BME280;4324;42.012;24.872;2022-12-29T02:16:25;100082.69;;;6.41;93.47
8573;BME280;4324;42.012;24.872;2022-12-29T02:19:09;100095.16;;;6.50;93.16
8573;BME280;4324;42.012;24.872;2022-12-29T02:22:07;100090.56;;;6.41;93.27
8573;BME280;4324;42.012;24.872;2022-12-29T02:25:11;100101.59;;;6.46;93.06
8573;BME280;4324;42.012;24.872;2022-12-29T02:28:15;100075.47;;;6.32;92.77
8573;BME280;4324;42.012;24.872;2022-12-29T02:30:57;100083.38;;;6.32;92.99
8573;BME280;4324;42.012;24.872;2022-12-29T02:33:37;100012.31;;;5.83;92.73
8573;BME280;4324;42.012;24.872;2022-12-29T02:36:13;100046.38;;;5.98;92.29
8573;BME280;4324;42.012;24.872;2022-12-29T02:38:54;100066.50;;;6.10;92.14
8573;BME280;4324;42.012;24.872;2022-12-29T02:41:30;100078.00;;;6.09;92.47
8573;BME280;4324;42.012;24.872;2022-12-29T02:44:02;100067.28;;;5.99;92.24
8573;BME280;4324;42.012;24.872;2022-12-29T02:46:36;100036.13;;;5.69;92.00
8573;BME280;4324;42.012;24.872;2022-12-29T02:49:10;100076.38;;;5.82;92.44
8573;BME280;4324;42.012;24.872;2022-12-29T02:51:45;100058.31;;;5.65;92.42
8573;BME280;4324;42.012;24.872;2022-12-29T02:54:16;100064.75;;;5.61;92.46
8573;BME280;4324;42.012;24.872;2022-12-29T02:57:01;100054.16;;;5.50;92.46
8573;BME280;4324;42.012;24.872;2022-12-29T02:59:28;100062.75;;;5.52;92.26
8573;BME280;4324;42.012;24.872;2022-12-29T03:02:09;100048.06;;;5.37;92.09
8573;BME280;4324;42.012;24.872;2022-12-29T03:04:53;100062.56;;;5.42;91.96
8573;BME280;4324;42.012;24.872;2022-12-29T03:07:32;100066.56;;;5.35;92.17
8573;BME280;4324;42.012;24.872;2022-12-29T03:10:15;100069.28;;;5.33;92.23
8573;BME280;4324;42.012;24.872;2022-12-29T03:12:49;100066.16;;;5.28;92.43
8573;BME280;4324;42.012;24.872;2022-12-29T03:15:41;100061.94;;;5.26;92.69
8573;BME280;4324;42.012;24.872;2022-12-29T03:18:46;100069.19;;;5.22;92.85
8573;BME280;4324;42.012;24.872;2022-12-29T03:21:17;100039.38;;;4.98;92.35
8573;BME280;4324;42.012;24.872;2022-12-29T03:23:48;100060.50;;;5.09;92.43
8573;BME280;4324;42.012;24.872;2022-12-29T03:26:17;100066.69;;;5.08;92.40
8573;BME280;4324;42.012;24.872;2022-12-29T03:28:49;100060.91;;;5.03;92.63
8573;BME280;4324;42.012;24.872;2022-12-29T03:31:19;100055.13;;;4.98;92.78
8573;BME280;4324;42.012;24.872;2022-12-29T03:33:51;100058.47;;;5.00;92.78
8573;BME280;4324;42.012;24.872;2022-12-29T03:36:26;100054.94;;;5.01;93.12
8573;BME280;4324;42.012;24.872;2022-12-29T03:38:59;100034.88;;;4.87;92.74
8573;BME280;4324;42.012;24.872;2022-12-29T03:41:30;100058.59;;;4.98;92.90
8573;BME280;4324;42.012;24.872;2022-12-29T03:43:58;100057.00;;;4.96;92.95
8573;BME280;4324;42.012;24.872;2022-12-29T03:46:25;100026.03;;;4.75;92.61
8573;BME280;4324;42.012;24.872;2022-12-29T03:48:53;100042.09;;;4.83;92.38
8573;BME280;4324;42.012;24.872;2022-12-29T03:51:20;99954.00;;;4.28;92.40
8573;BME280;4324;42.012;24.872;2022-12-29T03:53:47;100067.72;;;4.93;92.64
8573;BME280;4324;42.012;24.872;2022-12-29T03:56:14;100054.06;;;4.88;92.59
8573;BME280;4324;42.012;24.872;2022-12-29T03:58:41;99997.16;;;4.50;92.68
8573;BME280;4324;42.012;24.872;2022-12-29T04:01:09;100050.69;;;4.85;92.58
8573;BME280;4324;42.012;24.872;2022-12-29T04:03:36;100053.63;;;4.81;92.86
8573;BME280;4324;42.012;24.872;2022-12-29T04:06:05;100025.19;;;4.62;92.74
8573;BME280;4324;42.012;24.872;2022-12-29T04:08:33;100043.66;;;4.73;93.33
8573;BME280;4324;42.012;24.872;2022-12-29T04:11:02;100051.97;;;4.80;93.31
8573;BME280;4324;42.012;24.872;2022-12-29T04:13:30;100054.69;;;4.78;93.04
8573;BME280;4324;42.012;24.872;2022-12-29T04:15:57;100053.19;;;4.74;93.15
8573;BME280;4324;42.012;24.872;2022-12-29T04:18:24;100053.94;;;4.76;93.40
8573;BME280;4324;42.012;24.872;2022-12-29T04:20:51;100032.31;;;4.60;93.50
8573;BME280;4324;42.012;24.872;2022-12-29T04:23:28;100039.75;;;4.66;93.21
8573;BME280;4324;42.012;24.872;2022-12-29T04:25:54;100011.22;;;4.49;93.34
8573;BME280;4324;42.012;24.872;2022-12-29T04:28:21;100050.69;;;4.73;93.06
8573;BME280;4324;42.012;24.872;2022-12-29T04:30:49;100049.09;;;4.70;93.11
8573;BME280;4324;42.012;24.872;2022-12-29T04:33:16;100045.13;;;4.65;92.75
8573;BME280;4324;42.012;24.872;2022-12-29T04:35:43;100052.78;;;4.68;92.79
8573;BME280;4324;42.012;24.872;2022-12-29T04:38:10;100054.97;;;4.61;92.73
8573;BME280;4324;42.012;24.872;2022-12-29T04:40:39;100059.28;;;4.62;93.22
8573;BME280;4324;42.012;24.872;2022-12-29T04:43:06;100027.75;;;4.36;93.10
8573;BME280;4324;42.012;24.872;2022-12-29T04:45:33;100071.44;;;4.63;92.96
8573;BME280;4324;42.012;24.872;2022-12-29T04:48:00;100075.03;;;4.62;93.02
8573;BME280;4324;42.012;24.872;2022-12-29T04:50:27;100038.44;;;4.33;93.02
8573;BME280;4324;42.012;24.872;2022-12-29T04:52:54;100073.75;;;4.55;93.17
8573;BME280;4324;42.012;24.872;2022-12-29T04:55:27;100095.06;;;4.63;93.37
8573;BME280;4324;42.012;24.872;2022-12-29T04:57:57;100087.28;;;4.61;93.78
8573;BME280;4324;42.012;24.872;2022-12-29T05:00:30;100082.56;;;4.54;94.15
8573;BME280;4324;42.012;24.872;2022-12-29T05:03:00;100054.41;;;4.30;94.30
8573;BME280;4324;42.012;24.872;2022-12-29T05:05:27;100106.50;;;4.62;94.72
8573;BME280;4324;42.012;24.872;2022-12-29T05:07:54;100094.53;;;4.58;95.11
8573;BME280;4324;42.012;24.872;2022-12-29T05:10:21;100102.94;;;4.63;95.20
8573;BME280;4324;42.012;24.872;2022-12-29T05:12:48;100112.50;;;4.64;95.15
8573;BME280;4324;42.012;24.872;2022-12-29T05:15:16;100111.56;;;4.65;95.46
8573;BME280;4324;42.012;24.872;2022-12-29T05:18:17;100115.97;;;4.65;95.39
8573;BME280;4324;42.012;24.872;2022-12-29T05:20:45;100114.56;;;4.59;95.63
8573;BME280;4324;42.012;24.872;2022-12-29T05:23:13;100119.53;;;4.64;95.70
8573;BME280;4324;42.012;24.872;2022-12-29T05:25:41;100122.25;;;4.62;95.49
8573;BME280;4324;42.012;24.872;2022-12-29T05:28:10;100108.59;;;4.57;95.59
8573;BME280;4324;42.012;24.872;2022-12-29T05:30:38;100103.94;;;4.48;95.95
8573;BME280;4324;42.012;24.872;2022-12-29T05:33:05;100124.34;;;4.57;95.95
8573;BME280;4324;42.012;24.872;2022-12-29T05:35:32;100115.91;;;4.52;96.04
8573;BME280;4324;42.012;24.872;2022-12-29T05:37:59;100121.16;;;4.52;95.93
8573;BME280;4324;42.012;24.872;2022-12-29T05:40:26;100062.50;;;4.13;96.08
8573;BME280;4324;42.012;24.872;2022-12-29T05:42:53;100104.25;;;4.43;96.20
8573;BME280;4324;42.012;24.872;2022-12-29T05:45:26;100075.06;;;4.35;95.85
8573;BME280;4324;42.012;24.872;2022-12-29T05:48:14;100098.50;;;4.51;95.77
8573;BME280;4324;42.012;24.872;2022-12-29T05:50:41;100108.16;;;4.50;95.90
8573;BME280;4324;42.012;24.872;2022-12-29T05:53:09;100089.47;;;4.42;95.69
8573;BME280;4324;42.012;24.872;2022-12-29T05:55:36;100087.66;;;4.43;95.95
8573;BME280;4324;42.012;24.872;2022-12-29T05:58:03;100095.03;;;4.50;95.52
8573;BME280;4324;42.012;24.872;2022-12-29T06:00:32;100089.91;;;4.49;95.69
8573;BME280;4324;42.012;24.872;2022-12-29T06:02:59;100039.25;;;4.21;95.60
8573;BME280;4324;42.012;24.872;2022-12-29T06:05:28;100064.47;;;4.36;95.80
8573;BME280;4324;42.012;24.872;2022-12-29T06:07:55;100080.66;;;4.56;95.43
8573;BME280;4324;42.012;24.872;2022-12-29T06:10:22;100077.84;;;4.59;95.64
8573;BME280;4324;42.012;24.872;2022-12-29T06:12:49;100069.97;;;4.59;95.26
8573;BME280;4324;42.012;24.872;2022-12-29T06:15:15;100069.56;;;4.65;95.20
8573;BME280;4324;42.012;24.872;2022-12-29T06:17:46;100072.09;;;4.67;94.86
8573;BME280;4324;42.012;24.872;2022-12-29T06:20:12;99972.94;;;4.06;95.31
8573;BME280;4324;42.012;24.872;2022-12-29T06:22:41;100072.53;;;4.73;94.98
8573;BME280;4324;42.012;24.872;2022-12-29T06:25:15;100028.63;;;4.50;95.33
8573;BME280;4324;42.012;24.872;2022-12-29T06:27:42;100076.53;;;4.79;95.14
8573;BME280;4324;42.012;24.872;2022-12-29T06:30:10;100072.75;;;4.83;95.42
8573;BME280;4324;42.012;24.872;2022-12-29T06:32:38;100043.78;;;4.72;95.56
8573;BME280;4324;42.012;24.872;2022-12-29T06:35:05;100072.25;;;4.91;95.95
8573;BME280;4324;42.012;24.872;2022-12-29T06:37:32;100068.56;;;4.93;96.75
8573;BME280;4324;42.012;24.872;2022-12-29T06:40:01;100084.00;;;4.98;95.87
8573;BME280;4324;42.012;24.872;2022-12-29T06:42:28;100068.13;;;4.87;95.99
8573;BME280;4324;42.012;24.872;2022-12-29T06:44:54;100092.41;;;5.03;96.31
8573;BME280;4324;42.012;24.872;2022-12-29T06:47:24;100092.81;;;5.09;96.43
8573;BME280;4324;42.012;24.872;2022-12-29T06:49:57;100075.19;;;4.99;96.29
8573;BME280;4324;42.012;24.872;2022-12-29T06:52:24;100085.78;;;5.10;96.53
8573;BME280;4324;42.012;24.872;2022-12-29T06:54:50;100107.66;;;5.23;96.28
8573;BME280;4324;42.012;24.872;2022-12-29T06:57:19;100059.31;;;5.00;96.05
8573;BME280;4324;42.012;24.872;2022-12-29T06:59:46;100111.09;;;5.37;96.36
8573;BME280;4324;42.012;24.872;2022-12-29T07:02:13;100106.47;;;5.40;96.10
8573;BME280;4324;42.012;24.872;2022-12-29T07:04:42;100115.00;;;5.44;95.69
8573;BME280;4324;42.012;24.872;2022-12-29T07:07:08;100095.34;;;5.37;96.09
8573;BME280;4324;42.012;24.872;2022-12-29T07:09:35;100112.66;;;5.52;96.00
8573;BME280;4324;42.012;24.872;2022-12-29T07:12:02;100118.47;;;5.57;97.11
8573;BME280;4324;42.012;24.872;2022-12-29T07:14:31;100079.88;;;5.45;98.11
8573;BME280;4324;42.012;24.872;2022-12-29T07:17:02;100120.00;;;5.72;98.38
8573;BME280;4324;42.012;24.872;2022-12-29T07:19:31;100123.97;;;5.78;98.06
8573;BME280;4324;42.012;24.872;2022-12-29T07:21:57;100130.59;;;5.83;98.32
8573;BME280;4324;42.012;24.872;2022-12-29T07:24:25;100134.69;;;5.88;98.15
8573;BME280;4324;42.012;24.872;2022-12-29T07:26:52;100118.31;;;5.84;97.91
8573;BME280;4324;42.012;24.872;2022-12-29T07:29:19;100129.03;;;5.94;97.45
8573;BME280;4324;42.012;24.872;2022-12-29T07:31:47;100125.84;;;5.89;97.66
8573;BME280;4324;42.012;24.872;2022-12-29T07:34:14;100130.50;;;5.98;97.51
8573;BME280;4324;42.012;24.872;2022-12-29T07:36:41;100119.25;;;5.96;97.42
8573;BME280;4324;42.012;24.872;2022-12-29T07:39:08;100108.94;;;5.93;97.21
8573;BME280;4324;42.012;24.872;2022-12-29T07:41:35;100118.59;;;6.05;97.55
8573;BME280;4324;42.012;24.872;2022-12-29T07:44:02;100132.53;;;6.18;97.48
8573;BME280;4324;42.012;24.872;2022-12-29T07:46:28;100139.25;;;6.22;96.89
8573;BME280;4324;42.012;24.872;2022-12-29T07:48:57;100105.75;;;6.13;96.82
8573;BME280;4324;42.012;24.872;2022-12-29T07:51:26;100067.19;;;5.88;96.59
8573;BME280;4324;42.012;24.872;2022-12-29T07:53:53;100138.13;;;6.38;96.77
8573;BME280;4324;42.012;24.872;2022-12-29T07:56:20;100126.16;;;6.34;96.32
8573;BME280;4324;42.012;24.872;2022-12-29T07:58:47;100131.16;;;6.49;96.28
8573;BME280;4324;42.012;24.872;2022-12-29T08:01:14;100108.97;;;6.41;96.13
8573;BME280;4324;42.012;24.872;2022-12-29T08:03:41;100131.09;;;6.62;96.10
8573;BME280;4324;42.012;24.872;2022-12-29T08:06:10;100114.28;;;6.52;95.87
8573;BME280;4324;42.012;24.872;2022-12-29T08:08:38;100132.16;;;6.60;95.75
8573;BME280;4324;42.012;24.872;2022-12-29T08:11:05;100120.03;;;6.46;95.98
8573;BME280;4324;42.012;24.872;2022-12-29T08:13:31;100137.53;;;6.58;96.19
8573;BME280;4324;42.012;24.872;2022-12-29T08:15:58;100128.41;;;6.51;96.27
8573;BME280;4324;42.012;24.872;2022-12-29T08:18:25;100142.47;;;6.63;96.23
8573;BME280;4324;42.012;24.872;2022-12-29T08:20:52;100133.94;;;6.59;96.18
8573;BME280;4324;42.012;24.872;2022-12-29T08:23:20;100143.06;;;6.66;96.34
8573;BME280;4324;42.012;24.872;2022-12-29T08:25:56;100118.16;;;6.59;96.17
8573;BME280;4324;42.012;24.872;2022-12-29T08:28:23;100124.91;;;6.74;96.21
8573;BME280;4324;42.012;24.872;2022-12-29T08:30:51;100129.59;;;6.82;95.93
8573;BME280;4324;42.012;24.872;2022-12-29T08:33:18;100112.72;;;6.73;95.86
8573;BME280;4324;42.012;24.872;2022-12-29T08:35:45;100077.75;;;6.60;95.87
8573;BME280;4324;42.012;24.872;2022-12-29T08:38:12;100127.53;;;6.98;96.06
8573;BME280;4324;42.012;24.872;2022-12-29T08:40:40;100128.84;;;7.04;95.98
8573;BME280;4324;42.012;24.872;2022-12-29T08:43:07;100132.69;;;7.11;95.72
8573;BME280;4324;42.012;24.872;2022-12-29T08:45:34;100124.34;;;7.17;96.07
8573;BME280;4324;42.012;24.872;2022-12-29T08:48:01;100131.53;;;7.26;95.87
8573;BME280;4324;42.012;24.872;2022-12-29T08:50:29;100085.56;;;7.19;96.08
8573;BME280;4324;42.012;24.872;2022-12-29T08:52:55;100102.81;;;7.35;95.78
8573;BME280;4324;42.012;24.872;2022-12-29T08:55:22;100089.28;;;7.39;95.51
8573;BME280;4324;42.012;24.872;2022-12-29T08:57:51;100114.31;;;7.56;95.40
8573;BME280;4324;42.012;24.872;2022-12-29T09:00:18;100104.84;;;7.65;95.48
8573;BME280;4324;42.012;24.872;2022-12-29T09:02:46;100077.53;;;7.55;95.59
8573;BME280;4324;42.012;24.872;2022-12-29T09:05:13;100098.00;;;7.73;95.40
8573;BME280;4324;42.012;24.872;2022-12-29T09:07:40;100091.66;;;7.76;95.30
8573;BME280;4324;42.012;24.872;2022-12-29T09:10:08;100015.88;;;7.35;95.14
8573;BME280;4324;42.012;24.872;2022-12-29T09:12:46;100089.50;;;7.81;95.25
8573;BME280;4324;42.012;24.872;2022-12-29T09:15:22;100087.69;;;7.82;94.95
8573;BME280;4324;42.012;24.872;2022-12-29T09:17:49;100083.16;;;7.84;94.78
8573;BME280;4324;42.012;24.872;2022-12-29T09:20:17;100071.63;;;7.85;94.84
8573;BME280;4324;42.012;24.872;2022-12-29T09:22:46;100057.25;;;7.78;94.68
8573;BME280;4324;42.012;24.872;2022-12-29T09:25:14;100064.66;;;7.95;94.55
8573;BME280;4324;42.012;24.872;2022-12-29T09:27:44;100067.75;;;8.00;94.58
8573;BME280;4324;42.012;24.872;2022-12-29T09:30:13;100011.75;;;7.75;94.58
8573;BME280;4324;42.012;24.872;2022-12-29T09:32:45;100054.53;;;8.11;94.60
8573;BME280;4324;42.012;24.872;2022-12-29T09:35:12;99997.34;;;7.80;94.32
8573;BME280;4324;42.012;24.872;2022-12-29T09:37:40;100047.69;;;8.20;94.42
8573;BME280;4324;42.012;24.872;2022-12-29T09:40:18;100014.97;;;8.11;94.27
8573;BME280;4324;42.012;24.872;2022-12-29T09:42:55;99990.34;;;8.01;94.25
8573;BME280;4324;42.012;24.872;2022-12-29T09:45:32;99944.38;;;7.83;94.21
8573;BME280;4324;42.012;24.872;2022-12-29T09:48:07;100023.31;;;8.39;94.11
8573;BME280;4324;42.012;24.872;2022-12-29T09:50:39;100020.13;;;8.45;93.97
8573;BME280;4324;42.012;24.872;2022-12-29T09:53:20;100020.84;;;8.47;93.81
8573;BME280;4324;42.012;24.872;2022-12-29T09:55:55;99930.84;;;7.97;93.63
8573;BME280;4324;42.012;24.872;2022-12-29T09:58:36;100018.66;;;8.52;93.67
8573;BME280;4324;42.012;24.872;2022-12-29T10:04:04;99960.81;;;8.28;93.87
8573;BME280;4324;42.012;24.872;2022-12-29T10:06:35;99954.31;;;8.32;93.86
8573;BME280;4324;42.012;24.872;2022-12-29T10:09:13;99997.47;;;8.63;93.57
8573;BME280;4324;42.012;24.872;2022-12-29T10:12:01;99991.25;;;8.64;93.42
8573;BME280;4324;42.012;24.872;2022-12-29T10:14:44;99985.00;;;8.65;93.38
8573;BME280;4324;42.012;24.872;2022-12-29T10:17:25;99977.06;;;8.65;93.41
8573;BME280;4324;42.012;24.872;2022-12-29T10:20:06;99974.50;;;8.75;93.12
8573;BME280;4324;42.012;24.872;2022-12-29T10:22:47;99954.97;;;8.66;93.00
8573;BME280;4324;42.012;24.872;2022-12-29T10:25:19;99964.78;;;8.76;93.15
8573;BME280;4324;42.012;24.872;2022-12-29T10:27:48;99966.63;;;8.85;93.01
8573;BME280;4324;42.012;24.872;2022-12-29T10:30:16;99970.91;;;8.86;93.01
8573;BME280;4324;42.012;24.872;2022-12-29T10:32:47;99965.38;;;8.89;92.96
8573;BME280;4324;42.012;24.872;2022-12-29T10:35:19;99969.72;;;8.90;92.74
8573;BME280;4324;42.012;24.872;2022-12-29T10:37:56;99965.13;;;8.92;92.64
8573;BME280;4324;42.012;24.872;2022-12-29T10:40:27;99963.47;;;8.91;92.66
8573;BME280;4324;42.012;24.872;2022-12-29T10:42:57;99961.97;;;8.98;92.79
8573;BME280;4324;42.012;24.872;2022-12-29T10:45:28;99959.06;;;9.01;92.45
8573;BME280;4324;42.012;24.872;2022-12-29T10:48:00;99840.84;;;8.32;92.33
8573;BME280;4324;42.012;24.872;2022-12-29T10:50:30;99951.81;;;9.03;92.48
8573;BME280;4324;42.012;24.872;2022-12-29T10:53:00;99933.44;;;8.92;92.54
8573;BME280;4324;42.012;24.872;2022-12-29T10:55:32;99955.22;;;9.15;92.57
8573;BME280;4324;42.012;24.872;2022-12-29T10:58:04;99942.66;;;9.07;92.05
8573;BME280;4324;42.012;24.872;2022-12-29T11:00:33;99947.16;;;9.16;92.26
8573;BME280;4324;42.012;24.872;2022-12-29T11:03:16;99932.25;;;9.15;92.15
8573;BME280;4324;42.012;24.872;2022-12-29T11:05:50;99936.59;;;9.16;92.31
8573;BME280;4324;42.012;24.872;2022-12-29T11:08:22;99910.28;;;9.05;92.17
8573;BME280;4324;42.012;24.872;2022-12-29T11:10:58;99890.66;;;8.98;92.04
8573;BME280;4324;42.012;24.872;2022-12-29T11:13:27;99918.66;;;9.20;92.20
8573;BME280;4324;42.012;24.872;2022-12-29T11:15:55;99921.06;;;9.33;92.38
8573;BME280;4324;42.012;24.872;2022-12-29T11:18:23;99872.25;;;8.96;92.53
8573;BME280;4324;42.012;24.872;2022-12-29T11:21:01;99933.16;;;9.35;92.42
8573;BME280;4324;42.012;24.872;2022-12-29T11:23:32;99914.94;;;9.32;92.56
8573;BME280;4324;42.012;24.872;2022-12-29T11:26:07;99870.34;;;9.08;92.38
8573;BME280;4324;42.012;24.872;2022-12-29T11:28:35;99905.19;;;9.33;92.15
8573;BME280;4324;42.012;24.872;2022-12-29T11:31:04;99911.88;;;9.37;91.69
8573;BME280;4324;42.012;24.872;2022-12-29T11:33:33;99880.13;;;9.17;91.73
8573;BME280;4324;42.012;24.872;2022-12-29T11:36:04;99892.38;;;9.28;91.84
8573;BME280;4324;42.012;24.872;2022-12-29T11:38:34;99887.66;;;9.32;91.90
8573;BME280;4324;42.012;24.872;2022-12-29T11:41:04;99905.78;;;9.46;92.15
8573;BME280;4324;42.012;24.872;2022-12-29T11:43:41;99900.50;;;9.46;92.08
8573;BME280;4324;42.012;24.872;2022-12-29T11:46:14;99865.13;;;9.28;92.04
8573;BME280;4324;42.012;24.872;2022-12-29T11:48:46;99844.66;;;9.20;91.93
8573;BME280;4324;42.012;24.872;2022-12-29T11:51:21;99894.06;;;9.49;92.32
8573;BME280;4324;42.012;24.872;2022-12-29T11:53:51;99827.97;;;9.10;92.44
8573;BME280;4324;42.012;24.872;2022-12-29T11:56:22;99881.16;;;9.45;92.38
8573;BME280;4324;42.012;24.872;2022-12-29T11:58:57;99878.63;;;9.44;92.41
8573;BME280;4324;42.012;24.872;2022-12-29T12:01:31;99890.47;;;9.59;91.98
8573;BME280;4324;42.012;24.872;2022-12-29T12:04:03;99882.81;;;9.56;91.84
8573;BME280;4324;42.012;24.872;2022-12-29T12:06:34;99884.63;;;9.56;92.08
8573;BME280;4324;42.012;24.872;2022-12-29T12:09:09;99825.03;;;9.23;92.12
8573;BME280;4324;42.012;24.872;2022-12-29T12:11:41;99871.69;;;9.53;92.15
8573;BME280;4324;42.012;24.872;2022-12-29T12:14:14;99879.91;;;9.59;91.65
8573;BME280;4324;42.012;24.872;2022-12-29T12:16:49;99871.97;;;9.59;91.59
8573;BME280;4324;42.012;24.872;2022-12-29T12:19:33;99873.78;;;9.59;91.43
8573;BME280;4324;42.012;24.872;2022-12-29T12:22:08;99854.31;;;9.50;91.25
8573;BME280;4324;42.012;24.872;2022-12-29T12:24:42;99869.31;;;9.59;91.23
8573;BME280;4324;42.012;24.872;2022-12-29T12:27:14;99864.03;;;9.59;91.31
8573;BME280;4324;42.012;24.872;2022-12-29T12:29:50;99863.19;;;9.59;91.25
8573;BME280;4324;42.012;24.872;2022-12-29T12:32:24;99860.84;;;9.65;91.54
8573;BME280;4324;42.012;24.872;2022-12-29T12:34:55;99858.47;;;9.62;91.91
8573;BME280;4324;42.012;24.872;2022-12-29T12:37:36;99864.88;;;9.69;92.05
8573;BME280;4324;42.012;24.872;2022-12-29T12:40:21;99856.53;;;9.64;92.10
8573;BME280;4324;42.012;24.872;2022-12-29T12:42:57;99859.88;;;9.66;91.88
8573;BME280;4324;42.012;24.872;2022-12-29T12:45:42;99861.53;;;9.67;92.04
8573;BME280;4324;42.012;24.872;2022-12-29T12:48:23;99861.53;;;9.67;91.78
8573;BME280;4324;42.012;24.872;2022-12-29T12:50:59;99849.88;;;9.60;91.31
8573;BME280;4324;42.012;24.872;2022-12-29T12:53:49;99864.06;;;9.69;91.63
8573;BME280;4324;42.012;24.872;2022-12-29T12:56:41;99859.44;;;9.71;91.79
8573;BME280;4324;42.012;24.872;2022-12-29T12:59:30;99859.59;;;9.69;91.82
8573;BME280;4324;42.012;24.872;2022-12-29T13:02:07;99855.00;;;9.72;91.57
8573;BME280;4324;42.012;24.872;2022-12-29T13:04:56;99852.09;;;9.65;91.70
8573;BME280;4324;42.012;24.872;2022-12-29T13:07:32;99872.53;;;9.73;91.74
8573;BME280;4324;42.012;24.872;2022-12-29T13:10:22;99863.06;;;9.70;91.75
8573;BME280;4324;42.012;24.872;2022-12-29T13:12:59;99860.56;;;9.68;91.82
8573;BME280;4324;42.012;24.872;2022-12-29T13:15:42;99849.88;;;9.60;91.57
8573;BME280;4324;42.012;24.872;2022-12-29T13:18:20;99844.00;;;9.57;91.34
8573;BME280;4324;42.012;24.872;2022-12-29T13:20:51;99873.53;;;9.72;91.22
8573;BME280;4324;42.012;24.872;2022-12-29T13:23:25;99857.09;;;9.68;91.20
8573;BME280;4324;42.012;24.872;2022-12-29T13:26:05;99863.22;;;9.68;91.18
8573;BME280;4324;42.012;24.872;2022-12-29T13:28:43;99870.16;;;9.69;91.14
8573;BME280;4324;42.012;24.872;2022-12-29T13:31:17;99870.16;;;9.69;91.26
8573;BME280;4324;42.012;24.872;2022-12-29T13:33:52;99863.22;;;9.68;91.33
8573;BME280;4324;42.012;24.872;2022-12-29T13:36:26;99866.53;;;9.70;91.29
8573;BME280;4324;42.012;24.872;2022-12-29T13:39:02;99866.69;;;9.69;91.23
8573;BME280;4324;42.012;24.872;2022-12-29T13:41:37;99862.78;;;9.63;91.31
8573;BME280;4324;42.012;24.872;2022-12-29T13:44:09;99866.25;;;9.64;91.09